Pagina principale
METAR-TAF:

METAR-TAF

Aeroporti :

Emmen, Svizzera

latitudine: 47-05-32N, longitudine: 8-18-16E, altezza: 426 m

Osservazione

Il bollettino è stato emesso 33 minuti fa, alle 09:50 UTC
Vento calmo
Temperature 12°C
Umidità 82%
Pressione 1010 hPa
Visibilità 10 km o più
Nubi sparse ad un'altezza di 1000 ft
Nubi sparse ad un'altezza di 2800 ft
Nuvoloso ad un'altezza di 5200 ft
pioggia debole

METAR: LSME 070950Z AUTO 00000KT 9999NDV -RA SCT010 SCT028 BKN052 12/09 Q1010 RMK

Ora: 12:23 (10:23 UTC)


TAF: mancante

Osservazioni e previsioni meteorologiche di più di 4000 aeroporti (messaggi METAR e TAF).

Le stazioni disponibili sono rappresentate dai dischi gialli e rossi sulla carta.

Puntare il mouse per vedere il nome della stazione.

Clicca sopra per visualizzare le osservazioni e previsioni meteorologiche.

Per cambiare la mappa : fare clic sui pulsanti verdi con una croce nera per ingrandire, il pulsante verde con un trattino per diminuire, o sulla freccia verde per le mappe adiacenti.


METAR-TAF: